createdAt,value
2022-08-23T00:01:29.180Z,19.20
2022-08-23T00:04:02.456Z,19.20
2022-08-23T00:06:31.753Z,19.30
2022-08-23T00:09:01.006Z,19.30
2022-08-23T00:11:35.471Z,19.20
2022-08-23T00:14:08.447Z,19.30
2022-08-23T00:16:36.975Z,19.20
2022-08-23T00:19:07.415Z,19.20
2022-08-23T00:21:36.910Z,19.00
2022-08-23T00:24:07.004Z,18.90
2022-08-23T00:26:59.350Z,18.80
2022-08-23T00:29:31.113Z,18.80
2022-08-23T00:32:00.075Z,18.80
2022-08-23T00:34:28.547Z,18.80
2022-08-23T00:36:57.686Z,18.80
2022-08-23T00:39:26.413Z,18.80
2022-08-23T00:42:00.833Z,18.80
2022-08-23T00:44:51.257Z,18.80
2022-08-23T00:47:39.733Z,18.60
2022-08-23T00:50:23.765Z,18.40
2022-08-23T00:52:59.742Z,18.50
2022-08-23T00:55:29.217Z,18.50
2022-08-23T00:57:59.597Z,18.50
2022-08-23T01:00:29.562Z,18.40
2022-08-23T01:02:58.310Z,18.40
2022-08-23T01:05:32.202Z,18.40
2022-08-23T01:08:01.459Z,18.40
2022-08-23T01:10:32.737Z,18.40
2022-08-23T01:13:12.596Z,18.40
2022-08-23T01:15:45.455Z,18.40
2022-08-23T01:18:16.846Z,18.40
2022-08-23T01:20:52.338Z,18.40
2022-08-23T01:23:34.486Z,18.50
2022-08-23T01:26:03.511Z,18.50
2022-08-23T01:28:31.915Z,18.50
2022-08-23T01:31:00.396Z,18.40
2022-08-23T01:38:30.376Z,18.30
2022-08-23T01:41:01.258Z,18.20
2022-08-23T01:43:29.776Z,18.20
2022-08-23T01:45:58.361Z,18.20
2022-08-23T01:48:26.700Z,18.20
2022-08-23T01:50:55.234Z,18.10
2022-08-23T01:53:23.539Z,18.00
2022-08-23T01:55:53.273Z,17.70
2022-08-23T01:58:21.804Z,17.50
2022-08-23T02:00:50.230Z,17.50
2022-08-23T02:03:18.556Z,17.60
2022-08-23T02:05:47.465Z,17.40
2022-08-23T02:08:33.200Z,17.30
2022-08-23T02:11:09.581Z,17.10
2022-08-23T02:13:38.016Z,17.10
2022-08-23T02:16:06.586Z,17.10
2022-08-23T02:18:35.233Z,17.10
2022-08-23T02:21:03.736Z,17.10
2022-08-23T02:23:32.856Z,17.00
2022-08-23T02:26:02.601Z,17.00
2022-08-23T02:28:30.964Z,16.90
2022-08-23T02:30:59.257Z,16.80
2022-08-23T02:33:27.660Z,16.90
2022-08-23T02:35:55.940Z,16.90
2022-08-23T02:38:24.313Z,17.00
2022-08-23T02:41:00.617Z,17.00
2022-08-23T02:43:31.039Z,17.00
2022-08-23T02:45:59.615Z,16.90
2022-08-23T02:48:28.401Z,16.90
2022-08-23T02:51:00.974Z,16.90
2022-08-23T02:53:29.411Z,17.00
2022-08-23T02:55:57.869Z,16.90
2022-08-23T02:58:26.983Z,16.90
2022-08-23T03:00:57.115Z,16.90
2022-08-23T03:03:26.082Z,16.80
2022-08-23T03:05:54.908Z,16.80
2022-08-23T03:08:32.361Z,16.80
2022-08-23T03:11:00.797Z,16.70
2022-08-23T03:13:38.166Z,16.70
2022-08-23T03:16:08.446Z,16.60
2022-08-23T03:18:36.921Z,16.60
2022-08-23T03:21:07.074Z,16.60
2022-08-23T03:23:36.296Z,16.40
2022-08-23T03:26:06.401Z,16.50
2022-08-23T03:28:35.940Z,16.50
2022-08-23T03:31:04.935Z,16.50
2022-08-23T03:33:34.781Z,16.50
2022-08-23T03:36:04.518Z,16.40
2022-08-23T03:38:33.900Z,16.30
2022-08-23T03:41:02.328Z,16.40
2022-08-23T03:43:31.293Z,16.50
2022-08-23T03:45:59.627Z,16.60
2022-08-23T03:48:28.058Z,16.50
2022-08-23T03:50:57.974Z,16.60
2022-08-23T03:53:26.232Z,16.70
2022-08-23T03:55:56.611Z,16.70
2022-08-23T03:58:25.940Z,16.70
2022-08-23T04:00:54.248Z,16.60
2022-08-23T04:03:22.536Z,16.40
2022-08-23T04:05:50.943Z,16.20
2022-08-23T04:08:31.868Z,16.20
2022-08-23T04:11:02.220Z,16.40
2022-08-23T04:13:30.871Z,16.40
2022-08-23T04:15:59.293Z,16.40
2022-08-23T04:18:30.105Z,16.40
2022-08-23T04:21:00.076Z,16.40
2022-08-23T04:23:30.526Z,16.40
2022-08-23T04:25:59.039Z,16.30
2022-08-23T04:28:30.145Z,16.30
2022-08-23T04:31:00.505Z,16.30
2022-08-23T04:33:31.852Z,16.30
2022-08-23T04:36:00.659Z,16.40
2022-08-23T04:38:30.711Z,16.50
2022-08-23T04:41:16.724Z,16.50
2022-08-23T04:43:45.748Z,16.40
2022-08-23T04:46:16.118Z,16.40
2022-08-23T04:48:44.815Z,16.40
2022-08-23T04:51:14.047Z,16.50
2022-08-23T04:53:43.987Z,16.60
2022-08-23T04:56:12.730Z,16.50
2022-08-23T04:58:41.324Z,16.50
2022-08-23T05:01:11.382Z,16.50
2022-08-23T05:03:41.163Z,16.60
2022-08-23T05:06:09.879Z,16.50
2022-08-23T05:08:38.251Z,16.60
2022-08-23T05:11:10.297Z,16.80
2022-08-23T05:13:39.850Z,16.80
2022-08-23T05:16:09.070Z,16.80
2022-08-23T05:18:37.769Z,16.90
2022-08-23T05:21:06.265Z,17.00
2022-08-23T05:23:35.242Z,17.00
2022-08-23T05:26:04.461Z,16.90
2022-08-23T05:28:35.959Z,17.00
2022-08-23T05:31:11.361Z,17.20
2022-08-23T05:33:41.925Z,17.20
2022-08-23T05:36:12.706Z,17.30
2022-08-23T05:38:42.322Z,17.40
2022-08-23T05:41:11.893Z,17.40
2022-08-23T05:43:42.276Z,17.50
2022-08-23T05:46:13.025Z,17.60
2022-08-23T05:48:43.954Z,17.60
2022-08-23T05:51:14.757Z,17.80
2022-08-23T05:53:43.997Z,18.00
2022-08-23T05:56:17.204Z,18.00
2022-08-23T05:58:47.914Z,18.00
2022-08-23T06:01:16.979Z,17.80
2022-08-23T06:03:48.634Z,18.00
2022-08-23T06:06:19.163Z,18.20
2022-08-23T06:08:53.010Z,18.40
2022-08-23T06:11:28.568Z,18.50
2022-08-23T06:14:01.231Z,18.60
2022-08-23T06:16:35.563Z,18.70
2022-08-23T06:19:05.541Z,18.90
2022-08-23T06:21:34.707Z,18.90
2022-08-23T06:24:03.181Z,18.90
2022-08-23T06:26:33.961Z,18.60
2022-08-23T06:29:06.770Z,18.00
2022-08-23T06:31:48.184Z,18.00
2022-08-23T06:34:20.578Z,18.20
2022-08-23T06:36:50.444Z,18.40
2022-08-23T06:39:20.333Z,18.40
2022-08-23T06:41:49.738Z,18.50
2022-08-23T06:44:20.684Z,18.40
2022-08-23T06:46:49.818Z,18.80
2022-08-23T06:49:18.576Z,18.70
2022-08-23T06:51:52.420Z,18.90
2022-08-23T06:54:26.401Z,18.70
2022-08-23T06:56:55.376Z,19.00
2022-08-23T06:59:25.437Z,19.20
2022-08-23T07:01:56.481Z,19.40
2022-08-23T07:04:27.219Z,19.50
2022-08-23T07:06:56.081Z,20.00
2022-08-23T07:09:24.671Z,21.50
2022-08-23T07:11:53.309Z,24.60
2022-08-23T07:14:22.907Z,26.20
2022-08-23T08:37:12.782Z,26.90
2022-08-23T08:39:47.171Z,31.80
2022-08-23T08:42:46.415Z,31.40
2022-08-23T08:45:18.221Z,32.10
2022-08-23T08:47:50.990Z,30.60
2022-08-23T08:50:26.651Z,31.20
2022-08-23T08:53:01.801Z,31.10
2022-08-23T08:55:35.380Z,32.50
2022-08-23T08:58:07.567Z,32.50
2022-08-23T09:00:40.072Z,32.50
2022-08-23T09:03:15.207Z,33.40
2022-08-23T09:05:54.299Z,33.40
2022-08-23T09:08:43.924Z,31.90
2022-08-23T09:11:23.494Z,32.60
2022-08-23T09:14:16.684Z,32.70
2022-08-23T09:16:53.118Z,33.50
2022-08-23T09:19:25.194Z,34.10
2022-08-23T09:22:02.019Z,34.20
2022-08-23T09:24:32.012Z,33.70
2022-08-23T09:27:00.894Z,32.60
2022-08-23T09:29:31.512Z,32.10
2022-08-23T09:32:02.704Z,32.10
2022-08-23T09:34:43.666Z,31.50
2022-08-23T09:37:20.477Z,31.40
2022-08-23T09:39:51.713Z,32.40
2022-08-23T09:42:32.384Z,28.80
2022-08-23T09:45:01.234Z,27.50
2022-08-23T09:47:36.753Z,27.60
2022-08-23T09:50:24.438Z,27.00
2022-08-23T09:52:58.936Z,26.70
2022-08-23T09:55:32.232Z,26.90
2022-08-23T09:58:01.736Z,26.90
2022-08-23T10:00:32.625Z,27.40
2022-08-23T10:03:23.586Z,27.30
2022-08-23T10:05:53.379Z,27.20
2022-08-23T10:08:29.491Z,27.30
2022-08-23T10:11:03.460Z,27.40
2022-08-23T10:13:33.232Z,27.00
2022-08-23T10:16:10.087Z,27.50
2022-08-23T10:18:52.195Z,27.50
2022-08-23T10:21:26.450Z,27.00
2022-08-23T10:24:24.209Z,26.90
2022-08-23T10:27:29.780Z,26.90
2022-08-23T10:30:06.576Z,26.50
2022-08-23T10:32:54.351Z,27.20
2022-08-23T10:35:33.430Z,27.50
2022-08-23T10:38:29.819Z,27.40
2022-08-23T10:41:09.970Z,27.60
2022-08-23T10:43:44.923Z,27.20
2022-08-23T10:46:14.080Z,27.30
2022-08-23T10:48:51.889Z,27.60
2022-08-23T10:51:31.509Z,27.70
2022-08-23T10:54:06.404Z,27.60
2022-08-23T10:56:44.313Z,27.60
2022-08-23T10:59:24.269Z,27.50
2022-08-23T11:01:59.152Z,27.60
2022-08-23T11:04:35.950Z,27.70
2022-08-23T11:07:17.281Z,27.50
2022-08-23T11:09:58.362Z,27.50
2022-08-23T11:12:34.005Z,27.60
2022-08-23T11:15:23.964Z,27.50
2022-08-23T11:17:59.912Z,27.60
2022-08-23T11:21:09.988Z,27.70
2022-08-23T11:23:50.949Z,27.50
2022-08-23T11:27:07.873Z,27.50
2022-08-23T11:29:41.617Z,28.00
2022-08-23T11:32:40.999Z,28.30
2022-08-23T11:35:43.032Z,27.90
2022-08-23T11:38:13.972Z,27.90
2022-08-23T11:40:59.952Z,28.10
2022-08-23T11:43:38.324Z,28.00
2022-08-23T11:46:32.509Z,27.50
2022-08-23T11:49:32.159Z,27.70
2022-08-23T11:52:12.213Z,28.30
2022-08-23T11:55:07.544Z,28.60
2022-08-23T11:57:52.005Z,28.10
2022-08-23T12:00:28.674Z,28.30
2022-08-23T12:03:05.414Z,28.30
2022-08-23T12:06:15.112Z,28.00
2022-08-23T12:08:55.292Z,28.00
2022-08-23T12:11:25.813Z,27.80
2022-08-23T12:14:02.585Z,28.00
2022-08-23T12:16:36.313Z,28.10
2022-08-23T12:19:13.662Z,27.80
2022-08-23T12:21:46.283Z,28.20
2022-08-23T12:24:19.495Z,28.60
2022-08-23T12:27:00.194Z,28.40
2022-08-23T12:29:50.040Z,28.20
2022-08-23T12:32:25.592Z,28.30
2022-08-23T12:35:28.331Z,28.60
2022-08-23T12:38:06.179Z,28.90
2022-08-23T12:40:39.796Z,29.00
2022-08-23T12:43:22.838Z,28.80
2022-08-23T12:45:53.558Z,28.90
2022-08-23T12:48:24.690Z,29.30
2022-08-23T12:50:58.440Z,29.20
2022-08-23T12:53:32.112Z,29.40
2022-08-23T12:56:03.983Z,29.30
2022-08-23T12:58:36.746Z,29.30
2022-08-23T13:01:09.387Z,29.00
2022-08-23T13:03:40.542Z,29.10
2022-08-23T13:06:14.301Z,29.60
2022-08-23T13:08:46.574Z,29.80
2022-08-23T13:11:19.163Z,29.90
2022-08-23T13:13:48.398Z,29.80
2022-08-23T13:16:29.397Z,30.00
2022-08-23T13:19:11.395Z,30.10
2022-08-23T13:21:41.218Z,29.60
2022-08-23T13:24:37.852Z,29.30
2022-08-23T13:27:20.252Z,29.40
2022-08-23T13:29:54.239Z,29.70
2022-08-23T13:32:32.797Z,29.90
2022-08-23T13:35:36.333Z,29.60
2022-08-23T13:38:21.438Z,29.10
2022-08-23T13:41:00.465Z,29.80
2022-08-23T13:43:33.935Z,29.30
2022-08-23T13:46:12.943Z,29.60
2022-08-23T13:48:48.694Z,29.10
2022-08-23T13:51:29.740Z,29.30
2022-08-23T13:54:01.399Z,29.50
2022-08-23T13:56:32.607Z,29.10
2022-08-23T13:59:05.354Z,28.90
2022-08-23T14:01:33.944Z,28.90
2022-08-23T14:04:02.373Z,28.80
2022-08-23T14:06:30.783Z,29.10
2022-08-23T14:09:00.704Z,29.10
2022-08-23T14:11:29.150Z,29.30
2022-08-23T14:13:58.138Z,29.00
2022-08-23T14:16:33.812Z,29.30
2022-08-23T14:20:31.468Z,29.30
2022-08-23T14:21:53.845Z,28.50
2022-08-23T14:24:23.678Z,28.80
2022-08-23T14:26:52.823Z,28.90
2022-08-23T14:29:22.607Z,29.50
2022-08-23T14:31:56.203Z,29.80
2022-08-23T14:34:24.606Z,30.00
2022-08-23T14:39:44.088Z,28.90
2022-08-23T14:42:14.705Z,28.60
2022-08-23T14:44:43.603Z,29.20
2022-08-23T14:47:12.164Z,28.90
2022-08-23T14:49:40.691Z,28.80
2022-08-23T14:52:09.418Z,29.10
2022-08-23T14:54:37.786Z,29.10
2022-08-23T14:57:07.971Z,28.80
2022-08-23T14:59:36.432Z,28.90
2022-08-23T15:02:06.078Z,29.10
2022-08-23T15:04:36.537Z,29.40
2022-08-23T15:07:21.687Z,29.30
2022-08-23T15:09:51.181Z,29.50
2022-08-23T15:15:14.129Z,29.40
2022-08-23T15:17:48.711Z,29.50
2022-08-23T15:20:17.193Z,29.50
2022-08-23T15:22:55.738Z,29.50
2022-08-23T15:25:26.350Z,29.50
2022-08-23T15:27:56.661Z,29.40
2022-08-23T15:30:25.854Z,29.20
2022-08-23T15:32:56.864Z,29.00
2022-08-23T15:35:26.600Z,29.10
2022-08-23T15:37:57.383Z,29.20
2022-08-23T15:40:26.691Z,29.50
2022-08-23T15:42:56.614Z,29.30
2022-08-23T15:45:25.022Z,29.20
2022-08-23T15:47:56.524Z,29.30
2022-08-23T15:50:31.066Z,29.30
2022-08-23T15:52:59.750Z,29.00
2022-08-23T15:55:32.314Z,28.80
2022-08-23T15:58:02.189Z,29.00
2022-08-23T16:00:30.507Z,29.10
2022-08-23T16:03:20.627Z,28.90
2022-08-23T16:05:51.254Z,29.00
2022-08-23T16:08:24.809Z,29.00
2022-08-23T16:10:53.925Z,29.00
2022-08-23T16:13:24.548Z,28.80
2022-08-23T16:15:53.388Z,28.60
2022-08-23T16:18:22.138Z,28.60
2022-08-23T16:20:54.338Z,28.70
2022-08-23T16:23:23.459Z,28.70
2022-08-23T16:25:51.817Z,28.70
2022-08-23T16:28:20.421Z,28.90
2022-08-23T16:30:50.550Z,28.80
2022-08-23T16:36:39.735Z,28.60
2022-08-23T16:39:09.184Z,28.50
2022-08-23T16:41:37.730Z,28.40
2022-08-23T16:44:06.436Z,28.30
2022-08-23T16:46:36.455Z,28.40
2022-08-23T16:49:05.200Z,28.30
2022-08-23T16:51:33.517Z,28.20
2022-08-23T16:54:03.276Z,28.20
2022-08-23T16:56:33.638Z,28.30
2022-08-23T16:59:02.254Z,28.20
2022-08-23T17:01:33.110Z,28.20
2022-08-23T17:04:02.943Z,28.10
2022-08-23T17:06:31.078Z,27.90
2022-08-23T17:08:59.178Z,28.10
2022-08-23T17:11:32.671Z,27.80
2022-08-23T17:14:05.378Z,27.60
2022-08-23T17:16:34.275Z,27.70
2022-08-23T17:19:04.037Z,27.70
2022-08-23T17:21:32.328Z,27.60
2022-08-23T17:24:01.021Z,27.40
2022-08-23T17:26:29.741Z,27.30
2022-08-23T17:28:57.999Z,27.30
2022-08-23T17:31:27.201Z,27.30
2022-08-23T17:33:56.794Z,27.20
2022-08-23T17:36:30.917Z,27.20
2022-08-23T17:39:00.807Z,27.10
2022-08-23T17:41:29.578Z,27.00
2022-08-23T17:44:03.534Z,27.00
2022-08-23T17:46:31.743Z,26.90
2022-08-23T17:48:59.896Z,26.80
2022-08-23T17:51:29.601Z,26.80
2022-08-23T17:53:57.897Z,26.70
2022-08-23T17:56:27.021Z,26.60
2022-08-23T17:58:55.385Z,26.60
2022-08-23T18:01:23.765Z,26.50
2022-08-23T18:03:53.008Z,26.50
2022-08-23T18:06:21.580Z,26.50
2022-08-23T18:08:51.342Z,26.40
2022-08-23T18:11:19.596Z,26.30
2022-08-23T18:13:48.412Z,26.30
2022-08-23T18:16:16.755Z,26.20
2022-08-23T18:18:44.992Z,26.10
2022-08-23T18:21:13.995Z,26.10
2022-08-23T18:23:42.235Z,26.00
2022-08-23T18:26:34.777Z,25.90
2022-08-23T18:29:03.300Z,25.80
2022-08-23T18:31:32.491Z,25.70
2022-08-23T18:34:02.195Z,25.70
2022-08-23T18:36:31.002Z,25.60
2022-08-23T18:38:59.296Z,25.50
2022-08-23T18:41:28.974Z,25.50
2022-08-23T18:43:59.782Z,25.40
2022-08-23T18:46:34.504Z,25.40
2022-08-23T18:49:02.939Z,25.30
2022-08-23T18:51:31.220Z,25.20
2022-08-23T18:54:00.071Z,25.10
2022-08-23T18:56:29.595Z,25.00
2022-08-23T18:58:57.751Z,24.90
2022-08-23T19:01:28.456Z,24.80
2022-08-23T19:03:59.363Z,24.70
2022-08-23T19:06:28.800Z,24.70
2022-08-23T19:08:57.830Z,24.60
2022-08-23T19:11:26.706Z,24.50
2022-08-23T19:13:56.582Z,24.50
2022-08-23T19:16:26.580Z,24.40
2022-08-23T19:18:55.942Z,24.40
2022-08-23T19:21:25.635Z,24.40
2022-08-23T19:23:56.387Z,24.30
2022-08-23T19:26:31.564Z,24.20
2022-08-23T19:29:02.463Z,24.20
2022-08-23T19:31:36.095Z,24.20
2022-08-23T19:34:06.730Z,24.10
2022-08-23T19:36:56.832Z,24.10
2022-08-23T19:39:24.633Z,24.00
2022-08-23T19:41:52.826Z,24.00
2022-08-23T19:44:22.453Z,23.90
2022-08-23T19:46:51.317Z,23.90
2022-08-23T19:49:19.490Z,23.80
2022-08-23T19:51:47.774Z,23.80
2022-08-23T19:54:17.448Z,23.70
2022-08-23T19:56:48.451Z,23.60
2022-08-23T19:59:20.511Z,23.60
2022-08-23T20:01:50.952Z,23.60
2022-08-23T20:04:19.519Z,23.50
2022-08-23T20:06:48.871Z,23.50
2022-08-23T20:09:17.962Z,23.50
2022-08-23T20:11:46.095Z,23.40
2022-08-23T20:14:14.491Z,23.40
2022-08-23T20:16:43.165Z,23.40
2022-08-23T20:19:13.246Z,23.40
2022-08-23T20:21:42.686Z,23.30
2022-08-23T20:24:12.270Z,23.30
2022-08-23T20:26:43.045Z,23.30
2022-08-23T20:29:13.534Z,23.30
2022-08-23T20:31:48.922Z,23.10
2022-08-23T20:34:18.605Z,23.10
2022-08-23T20:36:48.123Z,23.00
2022-08-23T20:39:21.827Z,22.90
2022-08-23T20:41:52.308Z,22.90
2022-08-23T20:44:21.583Z,22.80
2022-08-23T20:46:54.000Z,22.80
2022-08-23T20:49:25.514Z,22.80
2022-08-23T20:51:53.690Z,22.70
2022-08-23T20:54:24.289Z,22.60
2022-08-23T20:56:53.451Z,22.50
2022-08-23T20:59:21.847Z,22.40
2022-08-23T21:01:50.243Z,22.40
2022-08-23T21:04:18.888Z,22.30
2022-08-23T21:06:52.136Z,22.30
2022-08-23T21:09:29.343Z,22.20
2022-08-23T21:11:58.383Z,22.20
2022-08-23T21:14:26.764Z,22.10
2022-08-23T21:16:54.850Z,22.10
2022-08-23T21:19:23.296Z,22.00
2022-08-23T21:21:53.305Z,22.00
2022-08-23T21:24:21.596Z,21.90
2022-08-23T21:26:51.416Z,21.90
2022-08-23T21:29:19.797Z,21.90
2022-08-23T21:31:48.130Z,21.80
2022-08-23T21:34:17.559Z,21.70
2022-08-23T21:36:46.011Z,21.70
2022-08-23T21:39:18.631Z,21.70
2022-08-23T21:41:48.396Z,21.80
2022-08-23T21:44:20.128Z,21.80
2022-08-23T21:46:49.358Z,21.80
2022-08-23T21:49:17.990Z,21.80
2022-08-23T21:55:36.270Z,21.70
2022-08-23T21:58:05.696Z,21.40
2022-08-23T22:00:34.697Z,21.30
2022-08-23T22:03:03.753Z,21.10
2022-08-23T22:05:32.402Z,21.10
2022-08-23T22:08:01.243Z,20.80
2022-08-23T22:10:30.991Z,20.70
2022-08-23T22:12:59.449Z,20.60
2022-08-23T22:15:27.828Z,20.60
2022-08-23T22:17:56.402Z,20.60
2022-08-23T22:20:24.725Z,20.50
2022-08-23T22:22:53.122Z,20.50
2022-08-23T22:25:21.411Z,20.40
2022-08-23T22:27:51.347Z,20.30
2022-08-23T22:30:19.964Z,20.30
2022-08-23T22:32:48.276Z,20.30
2022-08-23T22:35:17.074Z,20.20
2022-08-23T22:38:03.973Z,20.10
2022-08-23T22:40:35.442Z,20.10
2022-08-23T22:43:05.495Z,20.10
2022-08-23T22:45:33.827Z,20.10
2022-08-23T22:48:02.477Z,20.10
2022-08-23T22:50:31.572Z,20.10
2022-08-23T22:52:59.832Z,20.00
2022-08-23T22:55:29.498Z,19.90
2022-08-23T22:57:58.058Z,19.90
2022-08-23T23:00:28.051Z,20.00
2022-08-23T23:02:58.137Z,19.90
2022-08-23T23:05:26.496Z,19.90
2022-08-23T23:08:12.023Z,19.80
2022-08-23T23:10:40.329Z,19.70
2022-08-23T23:13:08.594Z,19.50
2022-08-23T23:15:38.380Z,19.40
2022-08-23T23:18:06.676Z,19.40
2022-08-23T23:20:38.054Z,19.40
2022-08-23T23:23:07.291Z,19.40
2022-08-23T23:25:35.886Z,19.30
2022-08-23T23:28:05.425Z,19.10
2022-08-23T23:30:34.526Z,19.20
2022-08-23T23:33:04.397Z,19.20
2022-08-23T23:35:32.872Z,19.20
2022-08-23T23:38:01.586Z,19.30
2022-08-23T23:40:29.969Z,19.20
2022-08-23T23:42:58.227Z,19.30
2022-08-23T23:45:26.944Z,19.30
2022-08-23T23:47:55.574Z,19.20
2022-08-23T23:50:25.634Z,19.10
2022-08-23T23:52:54.157Z,19.10
2022-08-23T23:55:23.901Z,19.10
2022-08-23T23:57:53.054Z,19.10
